aviador You're here:

KMKY Decoded Metar

in
Report Time2018-05-26 07:56:00
UTC Time2018-05-26 08:03:52
Flight Rules vfr VFR
Wind070° at 04 kt
W.Decomp.*RWY 35: 0.7 kt HW 3.9 kt RCW
W.Rank070° ranks 4
Current wind is below 070° avg. (5.8)
Visibility9999 m
Phenomena:Light Rain
Clouds:N/A
Expected CloudBase > 400 ft AGL from Temp-Dew spread
CeilingNone
Temp23°C
Dew Point22°C (94% RH)
QNH1013 hPa
Raw Report
METAR KMKY 260756Z AUTO 07004KT 10SM -RA CLR 23/22 A2990 RMK AO2 SLP124
P0000 T02280222=

Extra information for KMKY:More info

Social comments